sensor_id;sensor_type;location;lat;lon;timestamp;pressure;altitude;pressure_sealevel;temperature;humidity
46129;BME280;31860;45.186;5.790;2023-04-01T00:00:54;98839.63;;;15.84;81.55
46129;BME280;31860;45.186;5.790;2023-04-01T00:03:21;98824.75;;;15.83;81.10
46129;BME280;31860;45.186;5.790;2023-04-01T00:05:47;98822.22;;;15.80;80.83
46129;BME280;31860;45.186;5.790;2023-04-01T00:08:13;98816.06;;;15.79;81.29
46129;BME280;31860;45.186;5.790;2023-04-01T00:10:39;98826.66;;;15.78;81.67
46129;BME280;31860;45.186;5.790;2023-04-01T00:13:04;98820.50;;;15.77;83.19
46129;BME280;31860;45.186;5.790;2023-04-01T00:15:30;98825.81;;;15.76;82.84
46129;BME280;31860;45.186;5.790;2023-04-01T00:17:55;98834.56;;;15.76;83.73
46129;BME280;31860;45.186;5.790;2023-04-01T00:20:21;98841.63;;;15.76;85.47
46129;BME280;31860;45.186;5.790;2023-04-01T00:22:47;98846.94;;;15.74;85.98
46129;BME280;31860;45.186;5.790;2023-04-01T00:25:13;98842.56;;;15.73;85.60
46129;BME280;31860;45.186;5.790;2023-04-01T00:27:39;98847.03;;;15.70;85.44
46129;BME280;31860;45.186;5.790;2023-04-01T00:30:05;98842.66;;;15.70;86.38
46129;BME280;31860;45.186;5.790;2023-04-01T00:32:31;98841.78;;;15.70;87.05
46129;BME280;31860;45.186;5.790;2023-04-01T00:34:57;98843.50;;;15.71;88.14
46129;BME280;31860;45.186;5.790;2023-04-01T00:37:24;98848.81;;;15.69;88.47
46129;BME280;31860;45.186;5.790;2023-04-01T00:39:50;98845.34;;;15.67;89.10
46129;BME280;31860;45.186;5.790;2023-04-01T00:42:15;98847.09;;;15.68;89.68
46129;BME280;31860;45.186;5.790;2023-04-01T00:44:41;98840.13;;;15.66;89.52
46129;BME280;31860;45.186;5.790;2023-04-01T00:47:07;98844.56;;;15.64;89.23
46129;BME280;31860;45.186;5.790;2023-04-01T00:49:36;98843.75;;;15.62;89.05
46129;BME280;31860;45.186;5.790;2023-04-01T00:52:04;98845.59;;;15.58;89.40
46129;BME280;31860;45.186;5.790;2023-04-01T00:54:31;98842.09;;;15.58;88.36
46129;BME280;31860;45.186;5.790;2023-04-01T00:57:30;98831.69;;;15.53;89.59
46129;BME280;31860;45.186;5.790;2023-04-01T00:59:57;98828.28;;;15.50;86.19
46129;BME280;31860;45.186;5.790;2023-04-01T01:02:24;98833.59;;;15.47;86.14
46129;BME280;31860;45.186;5.790;2023-04-01T01:04:50;98829.25;;;15.46;85.86
46129;BME280;31860;45.186;5.790;2023-04-01T01:10:24;98825.00;;;15.39;85.43
46129;BME280;31860;45.186;5.790;2023-04-01T01:13:53;98831.28;;;15.35;85.61
46129;BME280;31860;45.186;5.790;2023-04-01T01:16:17;98830.44;;;15.33;84.71
46129;BME280;31860;45.186;5.790;2023-04-01T01:18:49;98826.97;;;15.31;84.88
46129;BME280;31860;45.186;5.790;2023-04-01T01:30:01;98822.94;;;15.17;82.56
46129;BME280;31860;45.186;5.790;2023-04-01T01:35:42;98824.72;;;15.14;81.52
46129;BME280;31860;45.186;5.790;2023-04-01T01:38:15;98824.81;;;15.11;81.60
46129;BME280;31860;45.186;5.790;2023-04-01T01:40:44;98824.88;;;15.09;80.66
46129;BME280;31860;45.186;5.790;2023-04-01T01:43:13;98828.38;;;15.10;80.36
46129;BME280;31860;45.186;5.790;2023-04-01T01:45:44;98824.00;;;15.09;79.86
46129;BME280;31860;45.186;5.790;2023-04-01T01:48:11;98812.63;;;15.07;79.59
46129;BME280;31860;45.186;5.790;2023-04-01T01:50:38;98803.00;;;15.07;79.17
46129;BME280;31860;45.186;5.790;2023-04-01T01:53:08;98802.06;;;15.08;78.67
46129;BME280;31860;45.186;5.790;2023-04-01T01:55:39;98802.91;;;15.10;78.11
46129;BME280;31860;45.186;5.790;2023-04-01T01:58:24;98807.31;;;15.10;77.73
46129;BME280;31860;45.186;5.790;2023-04-01T02:00:55;98811.75;;;15.08;77.36
46129;BME280;31860;45.186;5.790;2023-04-01T02:03:23;98820.50;;;15.08;78.54
46129;BME280;31860;45.186;5.790;2023-04-01T02:05:52;98817.91;;;15.07;81.31
46129;BME280;31860;45.186;5.790;2023-04-01T02:08:29;98826.72;;;15.06;84.07
46129;BME280;31860;45.186;5.790;2023-04-01T02:11:02;98825.03;;;15.02;85.60
46129;BME280;31860;45.186;5.790;2023-04-01T02:13:38;98817.16;;;15.02;86.61
46129;BME280;31860;45.186;5.790;2023-04-01T02:16:11;98822.47;;;15.00;86.80
46129;BME280;31860;45.186;5.790;2023-04-01T02:18:39;98820.72;;;14.99;87.01
46129;BME280;31860;45.186;5.790;2023-04-01T02:21:07;98825.97;;;14.99;87.48
46129;BME280;31860;45.186;5.790;2023-04-01T02:23:34;98820.66;;;15.01;88.22
46129;BME280;31860;45.186;5.790;2023-04-01T02:26:01;98828.56;;;15.01;88.41
46129;BME280;31860;45.186;5.790;2023-04-01T02:28:28;98828.56;;;15.02;88.90
46129;BME280;31860;45.186;5.790;2023-04-01T02:30:57;98829.38;;;15.03;89.49
46129;BME280;31860;45.186;5.790;2023-04-01T02:33:23;98819.75;;;15.03;89.58
46129;BME280;31860;45.186;5.790;2023-04-01T02:35:49;98816.25;;;15.03;90.12
46129;BME280;31860;45.186;5.790;2023-04-01T02:38:15;98818.84;;;15.04;90.63
46129;BME280;31860;45.186;5.790;2023-04-01T02:40:50;98808.34;;;15.04;90.90
46129;BME280;31860;45.186;5.790;2023-04-01T02:43:16;98812.72;;;15.04;90.74
46129;BME280;31860;45.186;5.790;2023-04-01T02:45:42;98806.53;;;15.05;90.87
46129;BME280;31860;45.186;5.790;2023-04-01T02:48:07;98791.69;;;15.04;90.95
46129;BME280;31860;45.186;5.790;2023-04-01T02:50:33;98809.19;;;15.05;91.33
46129;BME280;31860;45.186;5.790;2023-04-01T02:53:00;98810.97;;;15.04;92.06
46129;BME280;31860;45.186;5.790;2023-04-01T02:55:28;98816.19;;;15.06;92.36
46129;BME280;31860;45.186;5.790;2023-04-01T02:57:55;98810.06;;;15.05;92.71
46129;BME280;31860;45.186;5.790;2023-04-01T03:00:20;98817.13;;;15.03;93.20
46129;BME280;31860;45.186;5.790;2023-04-01T03:02:46;98816.25;;;15.03;93.54
46129;BME280;31860;45.186;5.790;2023-04-01T03:05:11;98821.50;;;15.03;93.46
46129;BME280;31860;45.186;5.790;2023-04-01T03:07:38;98821.53;;;15.01;93.24
46129;BME280;31860;45.186;5.790;2023-04-01T03:10:04;98813.66;;;15.01;93.19
46129;BME280;31860;45.186;5.790;2023-04-01T03:12:30;98818.91;;;15.01;93.44
46129;BME280;31860;45.186;5.790;2023-04-01T03:14:55;98820.66;;;15.02;93.82
46129;BME280;31860;45.186;5.790;2023-04-01T03:17:23;98811.94;;;15.00;93.80
46129;BME280;31860;45.186;5.790;2023-04-01T03:19:49;98806.69;;;15.00;94.19
46129;BME280;31860;45.186;5.790;2023-04-01T03:22:14;98798.81;;;14.99;94.61
46129;BME280;31860;45.186;5.790;2023-04-01T03:24:40;98795.28;;;15.00;94.68
46129;BME280;31860;45.186;5.790;2023-04-01T03:27:05;98790.13;;;14.97;94.64
46129;BME280;31860;45.186;5.790;2023-04-01T03:29:31;98793.63;;;14.96;95.06
46129;BME280;31860;45.186;5.790;2023-04-01T03:31:56;98788.38;;;14.96;95.72
46129;BME280;31860;45.186;5.790;2023-04-01T03:34:23;98788.41;;;14.94;95.29
46129;BME280;31860;45.186;5.790;2023-04-01T03:36:49;98779.69;;;14.92;94.99
46129;BME280;31860;45.186;5.790;2023-04-01T03:39:16;98770.06;;;14.91;95.32
46129;BME280;31860;45.186;5.790;2023-04-01T03:41:44;98778.78;;;14.93;95.25
46129;BME280;31860;45.186;5.790;2023-04-01T03:44:09;98772.72;;;14.90;94.74
46129;BME280;31860;45.186;5.790;2023-04-01T03:46:35;98772.72;;;14.90;95.36
46129;BME280;31860;45.186;5.790;2023-04-01T03:49:00;98773.59;;;14.90;95.89
46129;BME280;31860;45.186;5.790;2023-04-01T03:51:26;98766.63;;;14.89;95.60
46129;BME280;31860;45.186;5.790;2023-04-01T03:53:51;98764.00;;;14.89;95.47
46129;BME280;31860;45.186;5.790;2023-04-01T03:56:17;98764.78;;;14.91;95.18
46129;BME280;31860;45.186;5.790;2023-04-01T03:58:42;98755.19;;;14.90;95.05
46129;BME280;31860;45.186;5.790;2023-04-01T04:01:19;98750.84;;;14.89;96.21
46129;BME280;31860;45.186;5.790;2023-04-01T04:03:46;98745.59;;;14.89;95.57
46129;BME280;31860;45.186;5.790;2023-04-01T04:06:12;98744.72;;;14.89;95.47
46129;BME280;31860;45.186;5.790;2023-04-01T04:08:38;98757.88;;;14.89;95.83
46129;BME280;31860;45.186;5.790;2023-04-01T04:11:04;98762.22;;;14.90;96.29
46129;BME280;31860;45.186;5.790;2023-04-01T04:13:29;98755.22;;;14.89;96.61
46129;BME280;31860;45.186;5.790;2023-04-01T04:15:55;98762.28;;;14.87;96.78
46129;BME280;31860;45.186;5.790;2023-04-01T04:18:20;98762.28;;;14.87;97.04
46129;BME280;31860;45.186;5.790;2023-04-01T04:20:46;98757.91;;;14.87;96.39
46129;BME280;31860;45.186;5.790;2023-04-01T04:23:15;98762.28;;;14.87;95.68
46129;BME280;31860;45.186;5.790;2023-04-01T04:25:41;98773.69;;;14.86;95.22
46129;BME280;31860;45.186;5.790;2023-04-01T04:28:06;98772.84;;;14.85;95.36
46129;BME280;31860;45.186;5.790;2023-04-01T04:30:35;98771.94;;;14.86;96.20
46129;BME280;31860;45.186;5.790;2023-04-01T04:33:00;98770.22;;;14.85;96.70
46129;BME280;31860;45.186;5.790;2023-04-01T04:35:26;98784.22;;;14.87;97.18
46129;BME280;31860;45.186;5.790;2023-04-01T04:37:51;98780.66;;;14.88;96.83
46129;BME280;31860;45.186;5.790;2023-04-01T04:40:17;98779.78;;;14.89;96.21
46129;BME280;31860;45.186;5.790;2023-04-01T04:42:42;98776.22;;;14.90;96.31
46129;BME280;31860;45.186;5.790;2023-04-01T04:45:08;98764.00;;;14.88;94.92
46129;BME280;31860;45.186;5.790;2023-04-01T04:47:33;98759.72;;;14.85;93.84
46129;BME280;31860;45.186;5.790;2023-04-01T04:49:59;98774.63;;;14.85;92.89
46129;BME280;31860;45.186;5.790;2023-04-01T04:52:24;98773.78;;;14.83;92.17
46129;BME280;31860;45.186;5.790;2023-04-01T04:54:50;98768.47;;;14.84;90.62
46129;BME280;31860;45.186;5.790;2023-04-01T04:57:15;98773.75;;;14.84;89.51
46129;BME280;31860;45.186;5.790;2023-04-01T04:59:41;98778.13;;;14.85;87.85
46129;BME280;31860;45.186;5.790;2023-04-01T05:02:06;98778.97;;;14.86;86.66
46129;BME280;31860;45.186;5.790;2023-04-01T05:04:35;98789.47;;;14.86;87.72
46129;BME280;31860;45.186;5.790;2023-04-01T05:07:01;98786.00;;;14.84;88.27
46129;BME280;31860;45.186;5.790;2023-04-01T05:09:27;98777.25;;;14.85;89.25
46129;BME280;31860;45.186;5.790;2023-04-01T05:11:52;98772.84;;;14.85;90.07
46129;BME280;31860;45.186;5.790;2023-04-01T05:14:18;98766.69;;;14.86;88.41
46129;BME280;31860;45.186;5.790;2023-04-01T05:16:43;98764.13;;;14.83;87.82
46129;BME280;31860;45.186;5.790;2023-04-01T05:19:09;98765.03;;;14.82;88.32
46129;BME280;31860;45.186;5.790;2023-04-01T05:21:34;98762.34;;;14.84;89.01
46129;BME280;31860;45.186;5.790;2023-04-01T05:24:00;98756.25;;;14.83;89.65
46129;BME280;31860;45.186;5.790;2023-04-01T05:26:25;98754.44;;;14.85;88.73
46129;BME280;31860;45.186;5.790;2023-04-01T05:28:51;98748.41;;;14.82;87.34
46129;BME280;31860;45.186;5.790;2023-04-01T05:31:16;98755.38;;;14.83;86.46
46129;BME280;31860;45.186;5.790;2023-04-01T05:33:41;98772.03;;;14.83;86.97
46129;BME280;31860;45.186;5.790;2023-04-01T05:36:12;98779.88;;;14.85;86.63
46129;BME280;31860;45.186;5.790;2023-04-01T05:38:38;98776.31;;;14.86;88.32
46129;BME280;31860;45.186;5.790;2023-04-01T05:41:04;98785.03;;;14.89;89.28
46129;BME280;31860;45.186;5.790;2023-04-01T05:43:30;98785.03;;;14.89;90.86
46129;BME280;31860;45.186;5.790;2023-04-01T05:45:56;98783.25;;;14.90;91.55
46129;BME280;31860;45.186;5.790;2023-04-01T05:48:22;98785.91;;;14.88;92.72
46129;BME280;31860;45.186;5.790;2023-04-01T05:50:48;98804.31;;;14.88;94.02
46129;BME280;31860;45.186;5.790;2023-04-01T05:53:13;98794.69;;;14.89;95.08
46129;BME280;31860;45.186;5.790;2023-04-01T05:55:39;98802.56;;;14.89;95.48
46129;BME280;31860;45.186;5.790;2023-04-01T05:58:04;98813.97;;;14.88;96.11
46129;BME280;31860;45.186;5.790;2023-04-01T06:00:29;98817.47;;;14.88;97.22
46129;BME280;31860;45.186;5.790;2023-04-01T06:02:58;98822.78;;;14.87;97.67
46129;BME280;31860;45.186;5.790;2023-04-01T06:05:28;98809.63;;;14.87;97.83
46129;BME280;31860;45.186;5.790;2023-04-01T06:08:21;98818.34;;;14.89;100.00
46129;BME280;31860;45.186;5.790;2023-04-01T06:10:55;98814.84;;;14.88;100.00
46129;BME280;31860;45.186;5.790;2023-04-01T06:19:34;98830.66;;;14.87;100.00
46129;BME280;31860;45.186;5.790;2023-04-01T06:27:56;98851.66;;;14.88;100.00
46129;BME280;31860;45.186;5.790;2023-04-01T06:30:43;98845.53;;;14.88;100.00
46129;BME280;31860;45.186;5.790;2023-04-01T06:33:37;98848.16;;;14.88;100.00
46129;BME280;31860;45.186;5.790;2023-04-01T06:39:02;98842.91;;;14.88;100.00
46129;BME280;31860;45.186;5.790;2023-04-01T06:44:46;98827.25;;;14.83;100.00
46129;BME280;31860;45.186;5.790;2023-04-01T06:50:04;98833.28;;;14.87;100.00
46129;BME280;31860;45.186;5.790;2023-04-01T06:56:02;98845.47;;;14.91;100.00
46129;BME280;31860;45.186;5.790;2023-04-01T06:58:35;98855.09;;;14.92;100.00
46129;BME280;31860;45.186;5.790;2023-04-01T07:01:22;98862.94;;;14.95;100.00
46129;BME280;31860;45.186;5.790;2023-04-01T07:03:53;98869.81;;;14.99;100.00
46129;BME280;31860;45.186;5.790;2023-04-01T07:06:31;98863.63;;;15.01;100.00
46129;BME280;31860;45.186;5.790;2023-04-01T07:09:03;98856.63;;;15.02;100.00
46129;BME280;31860;45.186;5.790;2023-04-01T07:11:35;98863.59;;;15.03;100.00
46129;BME280;31860;45.186;5.790;2023-04-01T07:14:14;98868.84;;;15.03;100.00
46129;BME280;31860;45.186;5.790;2023-04-01T07:16:56;98861.84;;;15.03;100.00
46129;BME280;31860;45.186;5.790;2023-04-01T07:19:37;98868.84;;;15.04;100.00
46129;BME280;31860;45.186;5.790;2023-04-01T07:22:32;98874.97;;;15.03;100.00
46129;BME280;31860;45.186;5.790;2023-04-01T07:25:10;98878.47;;;15.04;100.00
46129;BME280;31860;45.186;5.790;2023-04-01T07:27:36;98875.81;;;15.05;100.00
46129;BME280;31860;45.186;5.790;2023-04-01T07:30:06;98870.50;;;15.07;100.00
46129;BME280;31860;45.186;5.790;2023-04-01T07:32:45;98857.31;;;15.08;100.00
46129;BME280;31860;45.186;5.790;2023-04-01T07:41:30;98880.09;;;15.09;100.00
46129;BME280;31860;45.186;5.790;2023-04-01T07:46:37;98866.97;;;15.09;100.00
46129;BME280;31860;45.186;5.790;2023-04-01T07:54:53;98860.78;;;15.10;100.00
46129;BME280;31860;45.186;5.790;2023-04-01T08:00:30;98861.59;;;15.12;100.00
46129;BME280;31860;45.186;5.790;2023-04-01T08:03:15;98853.72;;;15.12;100.00
46129;BME280;31860;45.186;5.790;2023-04-01T08:09:30;98858.00;;;15.16;99.69
46129;BME280;31860;45.186;5.790;2023-04-01T08:20:48;98876.28;;;15.23;100.00
46129;BME280;31860;45.186;5.790;2023-04-01T08:28:54;98892.81;;;15.28;98.43
46129;BME280;31860;45.186;5.790;2023-04-01T08:31:33;98898.91;;;15.30;100.00
46129;BME280;31860;45.186;5.790;2023-04-01T08:34:03;98909.44;;;15.30;99.99
46129;BME280;31860;45.186;5.790;2023-04-01T08:36:44;98909.44;;;15.30;100.00
46129;BME280;31860;45.186;5.790;2023-04-01T08:39:19;98912.94;;;15.30;100.00
46129;BME280;31860;45.186;5.790;2023-04-01T08:44:59;98905.94;;;15.31;99.40
46129;BME280;31860;45.186;5.790;2023-04-01T09:00:57;98881.09;;;15.41;100.00
46129;BME280;31860;45.186;5.790;2023-04-01T09:11:58;98860.91;;;15.76;93.73
46129;BME280;31860;45.186;5.790;2023-04-01T09:17:24;98859.72;;;15.89;86.43
46129;BME280;31860;45.186;5.790;2023-04-01T09:38:59;98847.38;;;16.53;81.47
46129;BME280;31860;45.186;5.790;2023-04-01T09:41:31;98846.16;;;16.64;80.30
46129;BME280;31860;45.186;5.790;2023-04-01T09:44:14;98842.28;;;16.76;76.63
46129;BME280;31860;45.186;5.790;2023-04-01T09:52:28;98833.44;;;17.04;70.40
46129;BME280;31860;45.186;5.790;2023-04-01T10:03:47;98826.16;;;17.39;65.66
46129;BME280;31860;45.186;5.790;2023-04-01T10:15:19;98823.66;;;17.62;66.39
46129;BME280;31860;45.186;5.790;2023-04-01T10:24:04;98800.47;;;17.70;63.39
46129;BME280;31860;45.186;5.790;2023-04-01T10:27:21;98810.19;;;17.69;63.08
46129;BME280;31860;45.186;5.790;2023-04-01T10:40:36;98794.91;;;17.53;63.05
46129;BME280;31860;45.186;5.790;2023-04-01T10:54:47;98791.03;;;17.37;62.30
46129;BME280;31860;45.186;5.790;2023-04-01T11:03:46;98773.84;;;17.25;64.50
46129;BME280;31860;45.186;5.790;2023-04-01T11:22:28;98751.56;;;17.58;65.67
46129;BME280;31860;45.186;5.790;2023-04-01T11:30:22;98755.63;;;17.68;65.99
46129;BME280;31860;45.186;5.790;2023-04-01T11:41:02;98763.00;;;17.59;65.32
46129;BME280;31860;45.186;5.790;2023-04-01T11:46:10;98761.53;;;17.50;67.10
46129;BME280;31860;45.186;5.790;2023-04-01T11:48:51;98765.13;;;17.49;68.04
46129;BME280;31860;45.186;5.790;2023-04-01T11:51:26;98755.38;;;17.50;69.75
46129;BME280;31860;45.186;5.790;2023-04-01T12:07:43;98728.81;;;18.25;67.60
46129;BME280;31860;45.186;5.790;2023-04-01T12:10:18;98709.69;;;18.40;65.59
46129;BME280;31860;45.186;5.790;2023-04-01T12:13:14;98711.00;;;18.53;63.42
46129;BME280;31860;45.186;5.790;2023-04-01T12:18:33;98697.69;;;18.76;60.92
46129;BME280;31860;45.186;5.790;2023-04-01T12:21:35;98684.03;;;18.87;60.32
46129;BME280;31860;45.186;5.790;2023-04-01T12:26:47;98658.44;;;19.08;62.17
46129;BME280;31860;45.186;5.790;2023-04-01T12:30:10;98660.63;;;19.18;62.15
46129;BME280;31860;45.186;5.790;2023-04-01T12:32:46;98652.22;;;19.29;61.58
46129;BME280;31860;45.186;5.790;2023-04-01T13:00:33;98604.28;;;19.35;56.61
46129;BME280;31860;45.186;5.790;2023-04-01T13:06:07;98590.50;;;19.27;54.76
46129;BME280;31860;45.186;5.790;2023-04-01T13:08:44;98582.69;;;19.24;56.54
46129;BME280;31860;45.186;5.790;2023-04-01T13:16:31;98561.66;;;19.21;55.72
46129;BME280;31860;45.186;5.790;2023-04-01T13:19:12;98555.56;;;19.19;54.14
46129;BME280;31860;45.186;5.790;2023-04-01T13:27:17;98543.47;;;19.13;54.12
46129;BME280;31860;45.186;5.790;2023-04-01T13:30:02;98526.00;;;19.09;54.71
46129;BME280;31860;45.186;5.790;2023-04-01T13:32:34;98523.50;;;19.06;54.32
46129;BME280;31860;45.186;5.790;2023-04-01T13:35:10;98516.53;;;19.04;53.64
46129;BME280;31860;45.186;5.790;2023-04-01T13:37:58;98510.44;;;19.02;52.92
46129;BME280;31860;45.186;5.790;2023-04-01T13:40:33;98502.66;;;18.99;53.18
46129;BME280;31860;45.186;5.790;2023-04-01T13:43:18;98498.44;;;18.95;52.95
46129;BME280;31860;45.186;5.790;2023-04-01T14:03:24;98498.97;;;18.62;52.29
46129;BME280;31860;45.186;5.790;2023-04-01T14:08:20;98493.22;;;18.53;52.63
46129;BME280;31860;45.186;5.790;2023-04-01T14:22:42;98488.09;;;18.28;50.71
46129;BME280;31860;45.186;5.790;2023-04-01T14:25:43;98489.22;;;18.23;50.41
46129;BME280;31860;45.186;5.790;2023-04-01T14:28:28;98491.22;;;18.16;50.91
46129;BME280;31860;45.186;5.790;2023-04-01T14:31:18;98492.41;;;18.09;49.97
46129;BME280;31860;45.186;5.790;2023-04-01T14:50:54;98518.63;;;17.72;52.42
46129;BME280;31860;45.186;5.790;2023-04-01T14:55:52;98516.34;;;17.63;53.21
46129;BME280;31860;45.186;5.790;2023-04-01T14:58:20;98524.38;;;17.60;53.10
46129;BME280;31860;45.186;5.790;2023-04-01T15:01:11;98530.75;;;17.54;53.27
46129;BME280;31860;45.186;5.790;2023-04-01T15:04:07;98534.53;;;17.47;53.14
46129;BME280;31860;45.186;5.790;2023-04-01T15:07:06;98547.03;;;17.42;53.79
46129;BME280;31860;45.186;5.790;2023-04-01T15:10:03;98543.69;;;17.37;55.19
46129;BME280;31860;45.186;5.790;2023-04-01T15:18:08;98550.06;;;17.08;57.83
46129;BME280;31860;45.186;5.790;2023-04-01T15:29:11;98580.13;;;16.80;61.05
46129;BME280;31860;45.186;5.790;2023-04-01T15:31:58;98589.97;;;16.75;61.97
46129;BME280;31860;45.186;5.790;2023-04-01T15:34:42;98590.09;;;16.72;64.03
46129;BME280;31860;45.186;5.790;2023-04-01T15:45:46;98552.25;;;16.47;67.09
46129;BME280;31860;45.186;5.790;2023-04-01T16:02:31;98543.97;;;16.05;66.65
46129;BME280;31860;45.186;5.790;2023-04-01T16:05:09;98541.59;;;15.97;65.02
46129;BME280;31860;45.186;5.790;2023-04-01T16:07:48;98538.19;;;15.94;65.01
46129;BME280;31860;45.186;5.790;2023-04-01T16:16:47;98541.25;;;15.80;67.04
46129;BME280;31860;45.186;5.790;2023-04-01T16:19:51;98559.84;;;15.76;66.48
46129;BME280;31860;45.186;5.790;2023-04-01T16:22:20;98566.19;;;15.69;66.73
46129;BME280;31860;45.186;5.790;2023-04-01T16:25:14;98579.34;;;15.69;66.90
46129;BME280;31860;45.186;5.790;2023-04-01T16:35:54;98619.69;;;15.71;73.01
46129;BME280;31860;45.186;5.790;2023-04-01T16:38:43;98621.41;;;15.72;79.89
46129;BME280;31860;45.186;5.790;2023-04-01T16:41:17;98620.50;;;15.73;77.95
46129;BME280;31860;45.186;5.790;2023-04-01T16:46:34;98625.63;;;15.77;82.99
46129;BME280;31860;45.186;5.790;2023-04-01T16:59:36;98631.72;;;15.79;77.25
46129;BME280;31860;45.186;5.790;2023-04-01T17:02:10;98628.16;;;15.80;77.20
46129;BME280;31860;45.186;5.790;2023-04-01T17:10:03;98621.25;;;15.76;77.83
46129;BME280;31860;45.186;5.790;2023-04-01T17:17:51;98603.94;;;15.69;76.46
46129;BME280;31860;45.186;5.790;2023-04-01T17:20:39;98597.06;;;15.64;76.38
46129;BME280;31860;45.186;5.790;2023-04-01T17:23:24;98602.34;;;15.64;76.49
46129;BME280;31860;45.186;5.790;2023-04-01T17:28:56;98590.22;;;15.58;78.69
46129;BME280;31860;45.186;5.790;2023-04-01T17:34:17;98590.28;;;15.57;80.32
46129;BME280;31860;45.186;5.790;2023-04-01T17:40:06;98586.00;;;15.53;81.04
46129;BME280;31860;45.186;5.790;2023-04-01T17:45:56;98597.41;;;15.53;82.66
46129;BME280;31860;45.186;5.790;2023-04-01T17:51:16;98610.56;;;15.53;82.92
46129;BME280;31860;45.186;5.790;2023-04-01T17:59:37;98619.31;;;15.54;87.52
46129;BME280;31860;45.186;5.790;2023-04-01T18:10:20;98638.69;;;15.51;86.27
46129;BME280;31860;45.186;5.790;2023-04-01T18:18:36;98655.50;;;15.47;85.81
46129;BME280;31860;45.186;5.790;2023-04-01T18:24:30;98656.44;;;15.45;85.91
46129;BME280;31860;45.186;5.790;2023-04-01T18:26:32;98662.66;;;15.42;84.43
46129;BME280;31860;45.186;5.790;2023-04-01T18:31:42;98676.72;;;15.40;83.73
46129;BME280;31860;45.186;5.790;2023-04-01T18:34:17;98667.09;;;15.39;83.53
46129;BME280;31860;45.186;5.790;2023-04-01T18:45:50;98675.06;;;15.36;94.73
46129;BME280;31860;45.186;5.790;2023-04-01T18:51:26;98672.53;;;15.33;90.02
46129;BME280;31860;45.186;5.790;2023-04-01T18:53:58;98672.66;;;15.28;87.13
46129;BME280;31860;45.186;5.790;2023-04-01T18:56:43;98678.00;;;15.25;84.32
46129;BME280;31860;45.186;5.790;2023-04-01T18:59:29;98672.88;;;15.20;82.76
46129;BME280;31860;45.186;5.790;2023-04-01T19:05:09;98688.19;;;15.05;80.61
46129;BME280;31860;45.186;5.790;2023-04-01T19:10:35;98685.88;;;14.93;79.60
46129;BME280;31860;45.186;5.790;2023-04-01T19:21:35;98703.47;;;14.91;78.33
46129;BME280;31860;45.186;5.790;2023-04-01T19:27:03;98703.50;;;14.89;78.84
46129;BME280;31860;45.186;5.790;2023-04-01T19:32:48;98703.56;;;14.86;79.29
46129;BME280;31860;45.186;5.790;2023-04-01T19:35:31;98702.78;;;14.83;81.46
46129;BME280;31860;45.186;5.790;2023-04-01T19:38:14;98709.81;;;14.82;81.58
46129;BME280;31860;45.186;5.790;2023-04-01T19:46:39;98715.28;;;14.73;84.08
46129;BME280;31860;45.186;5.790;2023-04-01T19:49:12;98715.38;;;14.70;83.13
46129;BME280;31860;45.186;5.790;2023-04-01T19:52:08;98718.84;;;14.71;85.43
46129;BME280;31860;45.186;5.790;2023-04-01T20:05:21;98727.66;;;14.70;88.59
46129;BME280;31860;45.186;5.790;2023-04-01T20:08:10;98719.81;;;14.68;88.18
46129;BME280;31860;45.186;5.790;2023-04-01T20:10:46;98715.44;;;14.67;88.64
46129;BME280;31860;45.186;5.790;2023-04-01T20:16:15;98712.03;;;14.64;89.96
46129;BME280;31860;45.186;5.790;2023-04-01T20:18:49;98719.03;;;14.63;91.83
46129;BME280;31860;45.186;5.790;2023-04-01T20:23:45;98713.03;;;14.58;91.90
46129;BME280;31860;45.186;5.790;2023-04-01T20:26:20;98713.88;;;14.60;93.76
46129;BME280;31860;45.186;5.790;2023-04-01T20:29:07;98712.16;;;14.58;94.99
46129;BME280;31860;45.186;5.790;2023-04-01T20:31:42;98713.06;;;14.57;94.43
46129;BME280;31860;45.186;5.790;2023-04-01T20:42:40;98713.13;;;14.54;99.49
46129;BME280;31860;45.186;5.790;2023-04-01T20:45:35;98717.53;;;14.53;98.92
46129;BME280;31860;45.186;5.790;2023-04-01T20:48:46;98714.09;;;14.51;100.00
46129;BME280;31860;45.186;5.790;2023-04-01T20:51:23;98712.34;;;14.50;100.00
46129;BME280;31860;45.186;5.790;2023-04-01T21:04:30;98710.72;;;14.45;100.00
46129;BME280;31860;45.186;5.790;2023-04-01T21:13:02;98704.63;;;14.43;100.00
46129;BME280;31860;45.186;5.790;2023-04-01T21:18:22;98711.69;;;14.42;100.00
46129;BME280;31860;45.186;5.790;2023-04-01T21:23:45;98702.09;;;14.40;100.00
46129;BME280;31860;45.186;5.790;2023-04-01T21:39:36;98703.97;;;14.35;96.41
46129;BME280;31860;45.186;5.790;2023-04-01T21:42:31;98700.47;;;14.34;97.06
46129;BME280;31860;45.186;5.790;2023-04-01T21:48:08;98696.22;;;14.29;95.67
46129;BME280;31860;45.186;5.790;2023-04-01T22:08:44;98689.38;;;14.21;100.00
46129;BME280;31860;45.186;5.790;2023-04-01T22:11:30;98690.25;;;14.20;100.00
46129;BME280;31860;45.186;5.790;2023-04-01T22:14:12;98692.03;;;14.18;99.78
46129;BME280;31860;45.186;5.790;2023-04-01T22:16:48;98694.63;;;14.20;100.00
46129;BME280;31860;45.186;5.790;2023-04-01T22:19:22;98697.28;;;14.18;99.08
46129;BME280;31860;45.186;5.790;2023-04-01T22:22:18;98691.16;;;14.19;99.55
46129;BME280;31860;45.186;5.790;2023-04-01T22:30:13;98692.91;;;14.19;97.37
46129;BME280;31860;45.186;5.790;2023-04-01T22:32:48;98697.28;;;14.18;97.66
46129;BME280;31860;45.186;5.790;2023-04-01T22:43:05;98695.56;;;14.17;98.85
46129;BME280;31860;45.186;5.790;2023-04-01T22:51:06;98694.66;;;14.18;99.40
46129;BME280;31860;45.186;5.790;2023-04-01T22:53:54;98700.84;;;14.17;99.77
46129;BME280;31860;45.186;5.790;2023-04-01T22:56:30;98700.00;;;14.15;99.69
46129;BME280;31860;45.186;5.790;2023-04-01T23:01:44;98702.63;;;14.15;98.81
46129;BME280;31860;45.186;5.790;2023-04-01T23:04:16;98708.72;;;14.17;98.63
46129;BME280;31860;45.186;5.790;2023-04-01T23:06:51;98705.25;;;14.15;98.81
46129;BME280;31860;45.186;5.790;2023-04-01T23:09:21;98707.00;;;14.15;98.95